Heinsburg, Canada
Current Conditions -  °F | °C
As of 3:00 PM on Monday 24 Nov 2014 (Local Time) from CYLL Reporting Station
Overcast Overcast  
Wind Chill:   Ceiling: 400
Heat Index: 18°   Visibility: 15mi
Dew Point: 16°   Wind: 8mph
Humidity: 93%   Direction: 270°W
Pressure: 29.91"   Gusts: NA
Location:  53.77°N, 110.52°W
Report Text: CYLL 242200Z 27007KT 15SM OVC004 M08/M09 A2991 RMK ST8 SLP175
Loading
Personal Weather Stations






























Interactive Weather Map New forecast layout! Learn more

10-Day Weather Forecast

Advertisements
Track Severe Weather on mobile